createdAt,value
2019-03-12T00:01:11.733Z,2.40
2019-03-12T00:03:15.379Z,2.40
2019-03-12T00:05:18.948Z,2.30
2019-03-12T00:07:22.523Z,2.30
2019-03-12T00:09:26.191Z,2.30
2019-03-12T00:11:29.851Z,2.30
2019-03-12T00:13:33.588Z,2.30
2019-03-12T00:15:37.191Z,2.20
2019-03-12T00:17:40.745Z,2.20
2019-03-12T00:19:44.315Z,2.20
2019-03-12T00:21:48.004Z,2.20
2019-03-12T00:23:51.541Z,2.20
2019-03-12T00:25:55.129Z,2.20
2019-03-12T00:27:58.777Z,2.20
2019-03-12T00:30:02.374Z,2.20
2019-03-12T00:32:05.923Z,2.20
2019-03-12T00:34:09.878Z,2.30
2019-03-12T00:36:13.427Z,2.30
2019-03-12T00:38:16.996Z,2.30
2019-03-12T00:40:20.600Z,2.40
2019-03-12T00:42:24.193Z,2.50
2019-03-12T00:44:27.755Z,2.50
2019-03-12T00:46:31.696Z,2.50
2019-03-12T00:48:35.290Z,2.60
2019-03-12T00:50:38.916Z,2.60
2019-03-12T00:52:42.504Z,2.60
2019-03-12T00:54:46.079Z,2.60
2019-03-12T00:56:49.655Z,2.60
2019-03-12T00:58:53.244Z,2.70
2019-03-12T01:00:56.807Z,2.70
2019-03-12T01:03:00.396Z,2.70
2019-03-12T01:05:05.191Z,2.70
2019-03-12T01:07:08.816Z,2.80
2019-03-12T01:09:12.391Z,2.80
2019-03-12T01:11:16.040Z,2.80
2019-03-12T01:13:19.683Z,2.80
2019-03-12T01:15:23.352Z,2.80
2019-03-12T01:17:26.932Z,2.80
2019-03-12T01:19:30.515Z,2.80
2019-03-12T01:21:34.079Z,2.80
2019-03-12T01:23:37.669Z,2.70
2019-03-12T01:25:41.223Z,2.70
2019-03-12T01:27:44.903Z,2.70
2019-03-12T01:29:48.478Z,2.70
2019-03-12T01:31:52.015Z,2.60
2019-03-12T01:33:55.627Z,2.60
2019-03-12T01:35:59.184Z,2.60
2019-03-12T01:38:02.822Z,2.60
2019-03-12T01:40:11.847Z,2.60
2019-03-12T01:42:15.444Z,2.60
2019-03-12T01:44:19.009Z,2.60
2019-03-12T01:46:22.717Z,2.60
2019-03-12T01:48:26.300Z,2.60
2019-03-12T01:50:29.864Z,2.60
2019-03-12T01:52:33.430Z,2.60
2019-03-12T01:54:36.988Z,2.60
2019-03-12T01:56:40.575Z,2.60
2019-03-12T01:58:44.148Z,2.60
2019-03-12T02:00:47.768Z,2.60
2019-03-12T02:02:51.371Z,2.60
2019-03-12T02:04:54.943Z,2.60
2019-03-12T02:06:58.491Z,2.60
2019-03-12T02:09:02.081Z,2.50
2019-03-12T02:11:05.663Z,2.60
2019-03-12T02:13:09.260Z,2.60
2019-03-12T02:15:15.228Z,2.60
2019-03-12T02:17:18.851Z,2.60
2019-03-12T02:19:22.399Z,2.60
2019-03-12T02:21:25.975Z,2.60
2019-03-12T02:23:29.573Z,2.60
2019-03-12T02:25:33.126Z,2.60
2019-03-12T02:27:36.702Z,2.70
2019-03-12T02:29:40.287Z,2.60
2019-03-12T02:31:43.859Z,2.70
2019-03-12T02:33:47.426Z,2.60
2019-03-12T02:35:51.038Z,2.60
2019-03-12T02:37:54.688Z,2.70
2019-03-12T02:39:58.245Z,2.80
2019-03-12T02:42:01.821Z,2.80
2019-03-12T02:44:05.416Z,2.80
2019-03-12T02:46:08.990Z,2.80
2019-03-12T02:48:12.563Z,2.80
2019-03-12T02:50:16.517Z,2.80
2019-03-12T02:52:20.112Z,2.80
2019-03-12T02:54:23.663Z,2.70
2019-03-12T02:56:27.231Z,2.70
2019-03-12T02:58:30.804Z,2.70
2019-03-12T03:00:34.389Z,2.70
2019-03-12T03:02:37.949Z,2.70
2019-03-12T03:04:41.520Z,2.70
2019-03-12T03:06:46.724Z,2.70
2019-03-12T03:08:50.278Z,2.70
2019-03-12T03:10:53.850Z,2.70
2019-03-12T03:12:57.471Z,2.70
2019-03-12T03:15:04.488Z,2.70
2019-03-12T03:17:09.041Z,2.70
2019-03-12T03:19:12.647Z,2.70
2019-03-12T03:21:16.237Z,2.70
2019-03-12T03:23:19.814Z,2.70
2019-03-12T03:25:23.460Z,2.70
2019-03-12T03:27:29.298Z,2.80
2019-03-12T03:29:32.257Z,2.80
2019-03-12T03:31:35.832Z,2.70
2019-03-12T03:33:39.470Z,2.80
2019-03-12T03:35:42.977Z,2.70
2019-03-12T03:37:46.544Z,2.70
2019-03-12T03:39:50.173Z,2.70
2019-03-12T03:41:53.746Z,2.70
2019-03-12T03:43:57.462Z,2.70
2019-03-12T03:46:01.144Z,2.70
2019-03-12T03:48:04.853Z,2.70
2019-03-12T03:50:11.083Z,2.70
2019-03-12T03:52:14.707Z,2.70
2019-03-12T03:54:18.274Z,2.70
2019-03-12T03:56:21.822Z,2.70
2019-03-12T03:58:25.416Z,2.60
2019-03-12T04:00:29.116Z,2.60
2019-03-12T04:02:32.726Z,2.60
2019-03-12T04:04:36.278Z,2.60
2019-03-12T04:06:39.860Z,2.70
2019-03-12T04:08:43.452Z,2.60
2019-03-12T04:10:47.001Z,2.60
2019-03-12T04:12:50.645Z,2.60
2019-03-12T04:14:54.197Z,2.70
2019-03-12T04:16:57.792Z,2.70
2019-03-12T04:19:01.392Z,2.70
2019-03-12T04:21:04.982Z,2.70
2019-03-12T04:23:08.621Z,2.70
2019-03-12T04:25:12.433Z,2.70
2019-03-12T04:27:16.121Z,2.70
2019-03-12T04:29:19.816Z,2.70
2019-03-12T04:31:23.439Z,2.70
2019-03-12T04:33:59.035Z,2.60
2019-03-12T04:36:02.594Z,2.70
2019-03-12T04:38:07.261Z,2.50
2019-03-12T04:40:12.488Z,2.50
2019-03-12T04:42:16.122Z,2.50
2019-03-12T04:44:19.688Z,2.50
2019-03-12T04:46:23.283Z,2.40
2019-03-12T04:48:26.841Z,2.40
2019-03-12T04:50:30.437Z,2.50
2019-03-12T04:52:34.005Z,2.50
2019-03-12T04:54:37.565Z,2.50
2019-03-12T04:56:41.163Z,2.50
2019-03-12T04:58:44.760Z,2.50
2019-03-12T05:00:48.348Z,2.60
2019-03-12T05:02:52.806Z,2.50
2019-03-12T05:04:56.477Z,2.50
2019-03-12T05:07:00.035Z,2.50
2019-03-12T05:09:05.614Z,2.50
2019-03-12T05:11:09.212Z,2.50
2019-03-12T05:13:12.777Z,2.40
2019-03-12T05:15:19.736Z,2.40
2019-03-12T05:17:23.371Z,2.30
2019-03-12T05:19:28.991Z,2.30
2019-03-12T05:21:32.559Z,2.30
2019-03-12T05:23:36.155Z,2.30
2019-03-12T05:25:39.721Z,2.30
2019-03-12T05:27:43.522Z,2.30
2019-03-12T05:29:47.130Z,2.30
2019-03-12T05:31:50.714Z,2.30
2019-03-12T05:33:54.289Z,2.30
2019-03-12T05:35:58.050Z,2.30
2019-03-12T05:38:01.603Z,2.30
2019-03-12T05:40:10.364Z,2.30
2019-03-12T05:42:13.963Z,2.40
2019-03-12T05:44:17.576Z,2.40
2019-03-12T05:46:21.153Z,2.40
2019-03-12T05:48:24.732Z,2.40
2019-03-12T05:50:28.323Z,2.40
2019-03-12T05:52:31.921Z,2.40
2019-03-12T05:54:35.542Z,2.50
2019-03-12T05:56:39.108Z,2.50
2019-03-12T05:58:42.739Z,2.50
2019-03-12T06:00:46.337Z,2.60
2019-03-12T06:02:49.904Z,2.60
2019-03-12T06:04:53.447Z,2.60
2019-03-12T06:06:57.168Z,2.70
2019-03-12T06:09:00.721Z,2.70
2019-03-12T06:11:04.454Z,2.70
2019-03-12T06:13:08.049Z,2.70
2019-03-12T06:15:16.591Z,2.80
2019-03-12T06:17:20.158Z,2.80
2019-03-12T06:19:23.728Z,2.80
2019-03-12T06:21:27.323Z,2.80
2019-03-12T06:23:30.885Z,2.80
2019-03-12T06:25:34.444Z,2.90
2019-03-12T06:27:38.170Z,2.90
2019-03-12T06:29:41.874Z,2.90
2019-03-12T06:31:47.328Z,3.00
2019-03-12T06:33:52.491Z,3.10
2019-03-12T06:36:00.648Z,3.00
2019-03-12T06:38:05.933Z,3.10
2019-03-12T06:40:26.457Z,3.00
2019-03-12T06:42:37.254Z,3.10
2019-03-12T06:44:45.271Z,3.20
2019-03-12T06:47:02.415Z,3.20
2019-03-12T06:49:10.204Z,3.20
2019-03-12T06:51:27.501Z,3.20
2019-03-12T06:53:41.521Z,3.20
2019-03-12T06:55:52.667Z,3.30
2019-03-12T06:58:17.841Z,3.40
2019-03-12T07:00:25.723Z,3.40
2019-03-12T07:02:39.886Z,3.30
2019-03-12T07:04:57.132Z,3.40
2019-03-12T07:07:11.595Z,3.40
2019-03-12T07:09:18.124Z,3.40
2019-03-12T07:11:39.435Z,3.40
2019-03-12T07:13:47.590Z,3.30
2019-03-12T07:16:01.739Z,3.40
2019-03-12T07:18:12.884Z,3.40
2019-03-12T07:20:18.119Z,3.40
2019-03-12T07:22:23.323Z,3.40
2019-03-12T07:24:40.675Z,3.50
2019-03-12T07:26:45.883Z,3.40
2019-03-12T07:28:56.832Z,3.50
2019-03-12T07:31:07.663Z,3.50
2019-03-12T07:33:12.851Z,3.50
2019-03-12T07:35:18.064Z,3.40
2019-03-12T07:37:26.452Z,3.40
2019-03-12T07:39:34.352Z,3.50
2019-03-12T07:41:39.659Z,3.60
2019-03-12T07:43:53.470Z,3.70
2019-03-12T07:46:03.852Z,3.80
2019-03-12T07:48:26.961Z,3.90
2019-03-12T07:50:35.140Z,3.80
2019-03-12T07:52:55.435Z,3.80
2019-03-12T07:55:09.579Z,3.80
2019-03-12T07:57:14.781Z,3.70
2019-03-12T07:59:20.015Z,3.70
2019-03-12T08:01:34.133Z,3.60
2019-03-12T08:03:39.367Z,3.60
2019-03-12T08:05:44.585Z,3.60
2019-03-12T08:07:49.793Z,3.60
2019-03-12T08:09:55.031Z,3.70
2019-03-12T08:12:06.075Z,3.70
2019-03-12T08:14:11.386Z,3.70
2019-03-12T08:16:16.620Z,3.80
2019-03-12T08:18:27.728Z,4.00
2019-03-12T08:20:47.856Z,4.20
2019-03-12T08:23:09.491Z,4.10
2019-03-12T08:25:20.470Z,4.10
2019-03-12T08:27:26.206Z,4.10
2019-03-12T08:29:34.345Z,4.10
2019-03-12T08:31:42.216Z,4.10
2019-03-12T08:33:52.907Z,4.20
2019-03-12T08:35:58.141Z,4.20
2019-03-12T08:38:09.251Z,4.20
2019-03-12T08:40:16.976Z,4.40
2019-03-12T08:42:22.218Z,4.50
2019-03-12T08:44:37.577Z,4.50
2019-03-12T08:46:43.045Z,4.50
2019-03-12T08:48:48.271Z,4.40
2019-03-12T08:50:56.428Z,4.40
2019-03-12T08:53:04.229Z,4.30
2019-03-12T08:55:14.581Z,4.40
2019-03-12T08:57:32.106Z,4.30
2019-03-12T08:59:55.258Z,4.40
2019-03-12T09:02:06.407Z,4.50
2019-03-12T09:04:14.334Z,4.60
2019-03-12T09:06:31.877Z,4.60
2019-03-12T09:08:37.113Z,4.40
2019-03-12T09:10:50.955Z,4.50
2019-03-12T09:13:13.748Z,4.40
2019-03-12T09:15:25.083Z,4.50
2019-03-12T09:17:36.132Z,4.70
2019-03-12T09:19:57.776Z,5.00
2019-03-12T09:22:09.071Z,5.20
2019-03-12T09:24:23.229Z,5.50
2019-03-12T09:26:34.273Z,5.70
2019-03-12T09:28:42.095Z,5.60
2019-03-12T09:30:59.266Z,5.50
2019-03-12T09:33:13.166Z,5.40
2019-03-12T09:35:35.544Z,5.40
2019-03-12T09:37:40.770Z,5.30
2019-03-12T09:39:57.910Z,5.30
2019-03-12T09:42:05.984Z,5.30
2019-03-12T09:44:14.086Z,5.30
2019-03-12T09:46:22.279Z,5.60
2019-03-12T09:48:30.322Z,5.70
2019-03-12T09:50:35.625Z,5.70
2019-03-12T09:52:40.856Z,5.80
2019-03-12T09:54:57.890Z,5.80
2019-03-12T09:57:08.772Z,6.00
2019-03-12T09:59:29.224Z,6.20
2019-03-12T10:01:37.159Z,6.10
2019-03-12T10:03:48.280Z,6.10
2019-03-12T10:05:53.468Z,6.10
2019-03-12T10:07:58.682Z,6.00
2019-03-12T10:10:03.993Z,6.10
2019-03-12T10:12:25.504Z,6.10
2019-03-12T10:14:48.834Z,6.20
2019-03-12T10:17:10.207Z,6.20
2019-03-12T10:19:15.376Z,6.10
2019-03-12T10:21:37.236Z,6.00
2019-03-12T10:23:51.490Z,6.20
2019-03-12T10:25:56.777Z,6.40
2019-03-12T10:28:02.173Z,6.50
2019-03-12T10:30:26.857Z,6.50
2019-03-12T10:32:41.031Z,6.40
2019-03-12T10:34:46.380Z,6.30
2019-03-12T10:37:12.491Z,6.20
2019-03-12T10:39:46.394Z,6.10
2019-03-12T10:41:51.625Z,6.10
2019-03-12T10:43:55.740Z,6.00
2019-03-12T10:46:01.065Z,6.00
2019-03-12T10:48:06.834Z,6.00
2019-03-12T10:50:12.133Z,6.20
2019-03-12T10:52:15.712Z,6.10
2019-03-12T10:54:18.493Z,6.10
2019-03-12T10:56:22.083Z,6.10
2019-03-12T10:58:25.721Z,6.20
2019-03-12T11:00:29.332Z,6.30
2019-03-12T11:02:32.961Z,6.30
2019-03-12T11:04:36.546Z,6.20
2019-03-12T11:06:39.405Z,6.20
2019-03-12T11:08:43.052Z,6.00
2019-03-12T11:10:57.439Z,6.00
2019-03-12T11:13:01.062Z,6.00
2019-03-12T11:15:05.786Z,6.10
2019-03-12T11:17:09.452Z,6.10
2019-03-12T11:19:13.108Z,6.30
2019-03-12T11:21:16.683Z,6.50
2019-03-12T11:23:19.494Z,6.60
2019-03-12T11:25:27.679Z,6.70
2019-03-12T11:27:28.279Z,6.80
2019-03-12T11:29:31.088Z,6.70
2019-03-12T11:31:34.729Z,6.60
2019-03-12T11:33:38.461Z,6.50
2019-03-12T11:35:42.099Z,6.40
2019-03-12T11:37:45.799Z,6.50
2019-03-12T11:39:49.355Z,6.40
2019-03-12T11:41:52.191Z,6.40
2019-03-12T11:43:55.782Z,6.40
2019-03-12T11:45:58.538Z,6.40
2019-03-12T11:48:02.147Z,6.50
2019-03-12T11:50:06.519Z,6.50
2019-03-12T11:52:10.120Z,6.70
2019-03-12T11:54:12.945Z,6.70
2019-03-12T11:56:16.478Z,6.90
2019-03-12T11:58:19.287Z,7.00
2019-03-12T12:00:25.746Z,7.00
2019-03-12T12:02:29.338Z,7.10
2019-03-12T12:04:32.941Z,7.20
2019-03-12T12:06:35.721Z,7.10
2019-03-12T12:08:39.804Z,6.90
2019-03-12T12:10:43.465Z,6.90
2019-03-12T12:12:47.129Z,6.70
2019-03-12T12:14:50.707Z,6.70
2019-03-12T12:16:53.505Z,6.80
2019-03-12T12:18:57.085Z,7.00
2019-03-12T12:20:59.870Z,7.30
2019-03-12T12:23:03.505Z,7.60
2019-03-12T12:25:13.244Z,7.90
2019-03-12T12:27:16.844Z,8.10
2019-03-12T12:29:19.617Z,8.20
2019-03-12T12:31:23.218Z,8.10
2019-03-12T12:33:26.007Z,7.70
2019-03-12T12:35:29.641Z,7.50
2019-03-12T12:37:33.226Z,7.50
2019-03-12T12:39:36.014Z,7.60
2019-03-12T12:41:39.564Z,7.80
2019-03-12T12:43:42.400Z,8.20
2019-03-12T12:45:46.028Z,8.50
2019-03-12T12:47:48.799Z,8.70
2019-03-12T12:49:52.421Z,8.60
2019-03-12T12:51:55.228Z,8.70
2019-03-12T12:53:58.771Z,8.90
2019-03-12T12:56:01.615Z,8.90
2019-03-12T12:58:05.276Z,8.70
2019-03-12T13:00:14.820Z,8.40
2019-03-12T13:02:18.379Z,8.00
2019-03-12T13:04:21.195Z,7.80
2019-03-12T13:06:24.836Z,7.80
2019-03-12T13:08:28.489Z,7.90
2019-03-12T13:10:33.875Z,8.10
2019-03-12T13:12:37.383Z,8.10
2019-03-12T13:14:41.699Z,8.00
2019-03-12T13:16:45.481Z,7.90
2019-03-12T13:18:48.267Z,7.90
2019-03-12T13:20:51.939Z,7.80
2019-03-12T13:22:55.568Z,7.80
2019-03-12T13:24:59.216Z,7.70
2019-03-12T13:27:02.783Z,7.80
2019-03-12T13:29:05.608Z,7.80
2019-03-12T13:31:09.311Z,7.70
2019-03-12T13:33:13.570Z,7.80
2019-03-12T13:35:18.195Z,7.80
2019-03-12T13:37:21.769Z,7.90
2019-03-12T13:39:24.618Z,7.70
2019-03-12T13:41:28.286Z,7.70
2019-03-12T13:43:32.030Z,7.60
2019-03-12T13:45:35.637Z,7.50
2019-03-12T13:47:39.245Z,7.40
2019-03-12T13:49:41.995Z,7.40
2019-03-12T13:51:45.746Z,7.50
2019-03-12T13:53:49.288Z,7.70
2019-03-12T13:55:52.085Z,8.10
2019-03-12T13:57:55.840Z,8.40
2019-03-12T13:59:59.387Z,8.50
2019-03-12T14:02:02.268Z,8.60
2019-03-12T14:04:10.689Z,8.80
2019-03-12T14:06:11.061Z,9.00
2019-03-12T14:08:13.954Z,9.10
2019-03-12T14:10:23.212Z,8.90
2019-03-12T14:12:26.852Z,8.70
2019-03-12T14:14:29.663Z,8.40
2019-03-12T14:16:33.285Z,8.30
2019-03-12T14:18:36.071Z,8.20
2019-03-12T14:20:45.096Z,8.40
2019-03-12T14:22:50.101Z,8.70
2019-03-12T14:24:53.927Z,8.90
2019-03-12T14:26:56.727Z,8.80
2019-03-12T14:29:00.384Z,8.90
2019-03-12T14:31:04.382Z,9.00
2019-03-12T14:33:08.371Z,9.00
2019-03-12T14:35:12.219Z,8.70
2019-03-12T14:37:15.817Z,8.40
2019-03-12T14:39:19.054Z,8.20
2019-03-12T14:41:22.699Z,8.20
2019-03-12T14:43:26.467Z,8.20
2019-03-12T14:45:30.766Z,8.30
2019-03-12T14:47:34.338Z,8.60
2019-03-12T14:49:37.134Z,8.80
2019-03-12T14:51:55.798Z,8.90
2019-03-12T14:54:10.344Z,9.00
2019-03-12T14:56:13.944Z,8.70
2019-03-12T14:58:16.726Z,8.60
2019-03-12T15:00:23.030Z,8.80
2019-03-12T15:02:26.707Z,8.90
2019-03-12T15:04:30.329Z,8.90
2019-03-12T15:06:33.107Z,8.50
2019-03-12T15:08:36.760Z,8.40
2019-03-12T15:10:40.404Z,8.40
2019-03-12T15:12:43.271Z,8.40
2019-03-12T15:14:46.935Z,8.30
2019-03-12T15:16:50.555Z,8.30
2019-03-12T15:18:53.340Z,8.30
2019-03-12T15:20:56.932Z,8.20
2019-03-12T15:22:59.755Z,8.20
2019-03-12T15:25:03.627Z,8.30
2019-03-12T15:27:07.249Z,8.30
2019-03-12T15:29:10.324Z,8.40
2019-03-12T15:31:14.067Z,8.40
2019-03-12T15:33:17.619Z,8.40
2019-03-12T15:35:20.481Z,8.20
2019-03-12T15:37:24.102Z,8.10
2019-03-12T15:39:26.876Z,8.10
2019-03-12T15:41:30.536Z,8.10
2019-03-12T15:43:34.160Z,8.00
2019-03-12T15:45:37.725Z,8.00
2019-03-12T15:47:40.567Z,8.00
2019-03-12T15:49:44.688Z,7.90
2019-03-12T15:51:48.326Z,7.90
2019-03-12T15:53:51.938Z,7.80
2019-03-12T15:55:56.022Z,7.80
2019-03-12T15:57:58.997Z,7.80
2019-03-12T16:00:02.574Z,7.70
2019-03-12T16:02:05.452Z,7.70
2019-03-12T16:04:09.157Z,7.70
2019-03-12T16:06:12.718Z,7.60
2019-03-12T16:08:15.549Z,7.60
2019-03-12T16:10:19.785Z,7.50
2019-03-12T16:12:23.503Z,7.40
2019-03-12T16:14:26.393Z,7.40
2019-03-12T16:16:30.020Z,7.40
2019-03-12T16:18:33.613Z,7.30
2019-03-12T16:20:36.417Z,7.30
2019-03-12T16:22:40.036Z,7.30
2019-03-12T16:24:43.678Z,7.30
2019-03-12T16:26:47.264Z,7.30
2019-03-12T16:28:50.072Z,7.30
2019-03-12T16:30:53.653Z,7.20
2019-03-12T16:32:56.492Z,7.20
2019-03-12T16:35:00.069Z,7.20
2019-03-12T16:37:02.994Z,7.20
2019-03-12T16:39:07.008Z,7.10
2019-03-12T16:41:10.651Z,7.10
2019-03-12T16:43:14.269Z,7.00
2019-03-12T16:45:19.076Z,7.00
2019-03-12T16:47:22.665Z,6.80
2019-03-12T16:49:25.507Z,6.90
2019-03-12T16:51:29.101Z,6.80
2019-03-12T16:53:31.888Z,6.70
2019-03-12T16:55:35.508Z,6.70
2019-03-12T16:57:39.072Z,6.60
2019-03-12T16:59:41.860Z,6.60
2019-03-12T17:01:45.588Z,6.50
2019-03-12T17:03:49.212Z,6.40
2019-03-12T17:05:53.003Z,6.40
2019-03-12T17:07:56.647Z,6.30
2019-03-12T17:10:00.474Z,6.30
2019-03-12T17:12:04.186Z,6.20
2019-03-12T17:14:07.750Z,6.20
2019-03-12T17:16:10.605Z,6.10
2019-03-12T17:18:14.176Z,6.00
2019-03-12T17:20:17.225Z,6.00
2019-03-12T17:22:20.822Z,5.90
2019-03-12T17:24:24.391Z,5.90
2019-03-12T17:26:27.967Z,5.80
2019-03-12T17:28:32.018Z,5.80
2019-03-12T17:30:35.569Z,5.80
2019-03-12T17:32:38.358Z,5.70
2019-03-12T17:34:41.916Z,5.70
2019-03-12T17:36:44.710Z,5.60
2019-03-12T17:38:48.395Z,5.60
2019-03-12T17:40:52.221Z,5.50
2019-03-12T17:42:56.287Z,5.50
2019-03-12T17:44:59.956Z,5.50
2019-03-12T17:47:03.517Z,5.40
2019-03-12T17:49:07.379Z,5.30
2019-03-12T17:51:11.063Z,5.30
2019-03-12T17:53:14.627Z,5.30
2019-03-12T17:55:18.375Z,5.20
2019-03-12T17:57:22.051Z,5.20
2019-03-12T17:59:25.621Z,5.10
2019-03-12T18:01:30.284Z,5.10
2019-03-12T18:03:34.076Z,5.00
2019-03-12T18:05:37.728Z,5.00
2019-03-12T18:07:41.309Z,5.00
2019-03-12T18:09:44.938Z,4.90
2019-03-12T18:11:48.571Z,4.90
2019-03-12T18:13:52.208Z,4.90
2019-03-12T18:15:55.785Z,4.90
2019-03-12T18:17:59.348Z,4.80
2019-03-12T18:20:03.027Z,4.80
2019-03-12T18:22:06.695Z,4.80
2019-03-12T18:24:10.286Z,4.80
2019-03-12T18:26:13.994Z,4.70
2019-03-12T18:28:17.591Z,4.80
2019-03-12T18:30:21.293Z,4.70
2019-03-12T18:32:24.892Z,4.70
2019-03-12T18:34:28.488Z,4.70
2019-03-12T18:36:32.175Z,4.70
2019-03-12T18:38:35.769Z,4.60
2019-03-12T18:40:39.458Z,4.70
2019-03-12T18:42:43.500Z,4.60
2019-03-12T18:44:47.148Z,4.70
2019-03-12T18:46:50.717Z,4.60
2019-03-12T18:48:54.438Z,4.70
2019-03-12T18:50:58.093Z,4.60
2019-03-12T18:53:02.038Z,4.70
2019-03-12T18:55:11.402Z,4.70
2019-03-12T18:57:15.173Z,4.60
2019-03-12T18:59:18.680Z,4.60
2019-03-12T19:01:22.316Z,4.60
2019-03-12T19:03:25.917Z,4.60
2019-03-12T19:05:29.542Z,4.50
2019-03-12T19:07:33.188Z,4.50
2019-03-12T19:09:36.835Z,4.50
2019-03-12T19:11:40.393Z,4.50
2019-03-12T19:13:44.205Z,4.50
2019-03-12T19:15:47.943Z,4.40
2019-03-12T19:17:51.662Z,4.40
2019-03-12T19:19:55.295Z,4.40
2019-03-12T19:21:59.034Z,4.30
2019-03-12T19:24:02.669Z,4.30
2019-03-12T19:26:09.763Z,4.20
2019-03-12T19:28:13.580Z,4.10
2019-03-12T19:30:20.855Z,4.10
2019-03-12T19:32:29.108Z,4.10
2019-03-12T19:34:32.880Z,4.10
2019-03-12T19:36:36.686Z,4.10
2019-03-12T19:38:40.461Z,4.10
2019-03-12T19:40:46.409Z,4.10
2019-03-12T19:42:50.239Z,4.10
2019-03-12T19:44:54.013Z,4.10
2019-03-12T19:46:58.057Z,4.00
2019-03-12T19:49:05.039Z,4.00
2019-03-12T19:51:09.390Z,4.00
2019-03-12T19:53:13.350Z,4.00
2019-03-12T19:55:20.096Z,4.00
2019-03-12T19:57:23.901Z,4.00
2019-03-12T19:59:27.567Z,4.00
2019-03-12T20:01:32.390Z,3.90
2019-03-12T20:03:36.043Z,3.90
2019-03-12T20:05:39.807Z,3.90
2019-03-12T20:07:43.536Z,3.90
2019-03-12T20:09:50.625Z,3.90
2019-03-12T20:12:17.075Z,3.90
2019-03-12T20:14:29.977Z,3.90
2019-03-12T20:16:45.576Z,3.90
2019-03-12T20:19:25.938Z,3.90
2019-03-12T20:21:55.183Z,3.90
2019-03-12T20:24:22.436Z,3.90
2019-03-12T20:26:41.139Z,3.90
2019-03-12T20:28:50.444Z,3.90
2019-03-12T20:31:06.081Z,3.90
2019-03-12T20:33:38.863Z,3.80
2019-03-12T20:36:01.166Z,3.80
2019-03-12T20:38:21.021Z,3.80
2019-03-12T20:40:46.647Z,3.80
2019-03-12T20:43:10.063Z,3.80
2019-03-12T20:45:25.760Z,3.80
2019-03-12T20:47:58.344Z,3.80
2019-03-12T20:50:28.093Z,3.80
2019-03-12T20:52:47.171Z,3.80
2019-03-12T20:55:31.154Z,3.80
2019-03-12T20:57:38.011Z,3.80
2019-03-12T20:59:58.510Z,3.80
2019-03-12T21:02:20.608Z,3.80
2019-03-12T21:04:39.252Z,3.70
2019-03-12T21:06:52.053Z,3.70
2019-03-12T21:09:17.294Z,3.80
2019-03-12T21:11:54.595Z,3.70
2019-03-12T21:14:36.110Z,3.70
2019-03-12T21:16:54.500Z,3.60
2019-03-12T21:19:30.724Z,3.70
2019-03-12T21:22:04.350Z,3.70
2019-03-12T21:24:23.059Z,3.70
2019-03-12T21:26:45.172Z,3.70
2019-03-12T21:29:08.543Z,3.80
2019-03-12T21:31:14.838Z,3.80
2019-03-12T21:33:19.831Z,3.80
2019-03-12T21:35:23.473Z,3.90
2019-03-12T21:37:27.122Z,3.90
2019-03-12T21:39:30.868Z,3.90
2019-03-12T21:41:34.806Z,3.90
2019-03-12T21:43:38.719Z,4.00
2019-03-12T21:45:42.415Z,4.00
2019-03-12T21:47:46.079Z,4.00
2019-03-12T21:49:49.650Z,4.00
2019-03-12T21:51:53.970Z,4.00
2019-03-12T21:54:00.378Z,4.00
2019-03-12T21:56:04.131Z,3.90
2019-03-12T21:58:07.796Z,3.90
2019-03-12T22:00:16.943Z,3.90
2019-03-12T22:02:20.580Z,3.90
2019-03-12T22:04:24.177Z,3.90
2019-03-12T22:06:27.853Z,4.00
2019-03-12T22:08:31.531Z,3.90
2019-03-12T22:10:35.199Z,3.90
2019-03-12T22:12:39.287Z,3.90
2019-03-12T22:14:42.904Z,3.90
2019-03-12T22:16:48.166Z,3.90
2019-03-12T22:18:51.834Z,3.90
2019-03-12T22:20:55.449Z,4.00
2019-03-12T22:23:09.715Z,4.00
2019-03-12T22:25:13.653Z,4.00
2019-03-12T22:27:17.324Z,3.90
2019-03-12T22:29:22.491Z,4.00
2019-03-12T22:31:26.097Z,3.90
2019-03-12T22:33:29.666Z,3.90
2019-03-12T22:35:33.249Z,3.80
2019-03-12T22:37:36.867Z,3.80
2019-03-12T22:39:40.440Z,3.80
2019-03-12T22:41:43.979Z,3.80
2019-03-12T22:43:47.557Z,3.90
2019-03-12T22:45:51.130Z,3.90
2019-03-12T22:47:54.697Z,3.90
2019-03-12T22:49:58.290Z,3.90
2019-03-12T22:52:01.874Z,3.90
2019-03-12T22:54:05.446Z,3.90
2019-03-12T22:56:09.019Z,3.90
2019-03-12T22:58:12.616Z,3.80
2019-03-12T23:00:20.960Z,3.80
2019-03-12T23:02:24.515Z,3.80
2019-03-12T23:04:30.845Z,3.80
2019-03-12T23:06:34.424Z,3.70
2019-03-12T23:08:37.990Z,3.80
2019-03-12T23:10:41.808Z,3.80
2019-03-12T23:12:45.383Z,3.80
2019-03-12T23:14:48.991Z,3.90
2019-03-12T23:16:52.621Z,3.90
2019-03-12T23:18:56.168Z,3.90
2019-03-12T23:20:59.772Z,4.00
2019-03-12T23:23:03.400Z,4.10
2019-03-12T23:25:08.434Z,4.20
2019-03-12T23:27:12.556Z,4.30
2019-03-12T23:29:16.399Z,4.30
2019-03-12T23:31:20.277Z,4.40
